createdAt,value
2023-03-06T00:01:03.803Z,100.00
2023-03-06T00:03:33.709Z,100.00
2023-03-06T00:06:03.072Z,100.00
2023-03-06T00:08:31.967Z,100.00
2023-03-06T00:11:00.971Z,100.00
2023-03-06T00:13:30.691Z,100.00
2023-03-06T00:16:01.830Z,100.00
2023-03-06T00:18:30.595Z,100.00
2023-03-06T00:20:59.059Z,100.00
2023-03-06T00:23:29.105Z,100.00
2023-03-06T00:25:57.601Z,100.00
2023-03-06T00:28:26.172Z,100.00
2023-03-06T00:30:54.795Z,100.00
2023-03-06T00:33:24.802Z,100.00
2023-03-06T00:35:55.286Z,100.00
2023-03-06T00:38:25.397Z,100.00
2023-03-06T00:40:53.928Z,100.00
2023-03-06T00:43:22.968Z,100.00
2023-03-06T00:45:51.504Z,100.00
2023-03-06T00:48:20.196Z,100.00
2023-03-06T00:50:50.260Z,100.00
2023-03-06T00:53:19.090Z,100.00
2023-03-06T00:55:47.881Z,100.00
2023-03-06T00:58:16.368Z,100.00
2023-03-06T01:00:45.992Z,100.00
2023-03-06T01:03:14.591Z,100.00
2023-03-06T01:05:43.637Z,100.00
2023-03-06T01:08:13.568Z,100.00
2023-03-06T01:10:42.788Z,100.00
2023-03-06T01:13:11.657Z,100.00
2023-03-06T01:15:40.331Z,100.00
2023-03-06T01:18:09.100Z,100.00
2023-03-06T01:20:38.299Z,100.00
2023-03-06T01:23:06.839Z,100.00
2023-03-06T01:25:38.079Z,100.00
2023-03-06T01:28:06.697Z,100.00
2023-03-06T01:30:35.183Z,100.00
2023-03-06T01:33:03.999Z,100.00
2023-03-06T01:35:32.566Z,100.00
2023-03-06T01:38:01.193Z,100.00
2023-03-06T01:40:32.872Z,100.00
2023-03-06T01:43:12.116Z,100.00
2023-03-06T01:46:34.167Z,100.00
2023-03-06T01:49:19.629Z,100.00
2023-03-06T01:51:55.052Z,100.00
2023-03-06T01:54:29.660Z,100.00
2023-03-06T01:57:03.829Z,100.00
2023-03-06T01:59:38.515Z,100.00
2023-03-06T02:02:10.841Z,100.00
2023-03-06T02:04:42.492Z,100.00
2023-03-06T02:07:12.528Z,100.00
2023-03-06T02:09:41.161Z,100.00
2023-03-06T02:12:13.871Z,100.00
2023-03-06T02:14:44.594Z,100.00
2023-03-06T02:17:17.983Z,100.00
2023-03-06T02:19:58.537Z,100.00
2023-03-06T02:22:37.150Z,100.00
2023-03-06T02:25:22.351Z,100.00
2023-03-06T02:27:51.215Z,100.00
2023-03-06T02:30:20.400Z,100.00
2023-03-06T02:32:49.565Z,100.00
2023-03-06T02:35:21.940Z,100.00
2023-03-06T02:37:51.254Z,100.00
2023-03-06T02:40:23.970Z,100.00
2023-03-06T02:42:56.477Z,100.00
2023-03-06T02:45:34.830Z,100.00
2023-03-06T02:48:03.509Z,100.00
2023-03-06T02:50:33.362Z,100.00
2023-03-06T02:53:03.165Z,100.00
2023-03-06T02:55:34.511Z,100.00
2023-03-06T02:58:04.289Z,100.00
2023-03-06T03:00:35.194Z,100.00
2023-03-06T03:03:07.212Z,100.00
2023-03-06T03:05:35.983Z,100.00
2023-03-06T03:08:12.985Z,100.00
2023-03-06T03:10:43.027Z,100.00
2023-03-06T03:13:11.563Z,100.00
2023-03-06T03:15:41.320Z,100.00
2023-03-06T03:18:11.687Z,100.00
2023-03-06T03:20:43.982Z,100.00
2023-03-06T03:23:13.575Z,100.00
2023-03-06T03:25:43.454Z,100.00
2023-03-06T03:28:12.260Z,100.00
2023-03-06T03:30:42.301Z,100.00
2023-03-06T03:33:12.849Z,100.00
2023-03-06T03:35:41.533Z,100.00
2023-03-06T03:38:10.090Z,100.00
2023-03-06T03:40:40.383Z,100.00
2023-03-06T03:43:10.689Z,100.00
2023-03-06T03:45:41.086Z,100.00
2023-03-06T03:48:09.660Z,100.00
2023-03-06T03:50:38.386Z,100.00
2023-03-06T03:53:07.477Z,100.00
2023-03-06T03:55:38.490Z,100.00
2023-03-06T03:58:07.391Z,100.00
2023-03-06T04:00:37.362Z,100.00
2023-03-06T04:03:13.031Z,100.00
2023-03-06T04:05:44.822Z,100.00
2023-03-06T04:08:16.110Z,100.00
2023-03-06T04:10:47.484Z,100.00
2023-03-06T04:13:18.039Z,100.00
2023-03-06T04:15:49.266Z,100.00
2023-03-06T04:18:18.197Z,100.00
2023-03-06T04:20:48.824Z,100.00
2023-03-06T04:23:19.196Z,100.00
2023-03-06T04:25:51.433Z,100.00
2023-03-06T04:28:20.771Z,100.00
2023-03-06T04:30:50.713Z,100.00
2023-03-06T04:33:19.983Z,100.00
2023-03-06T04:35:48.801Z,100.00
2023-03-06T04:38:23.299Z,100.00
2023-03-06T04:40:51.923Z,100.00
2023-03-06T04:43:20.789Z,100.00
2023-03-06T04:45:50.736Z,100.00
2023-03-06T04:48:20.028Z,100.00
2023-03-06T04:50:48.696Z,100.00
2023-03-06T04:53:19.595Z,100.00
2023-03-06T04:55:48.444Z,100.00
2023-03-06T04:58:17.267Z,100.00
2023-03-06T05:00:46.079Z,100.00
2023-03-06T05:03:16.127Z,100.00
2023-03-06T05:05:44.896Z,100.00
2023-03-06T05:08:15.837Z,100.00
2023-03-06T05:10:45.590Z,100.00
2023-03-06T05:13:14.471Z,100.00
2023-03-06T05:15:43.044Z,100.00
2023-03-06T05:18:11.778Z,100.00
2023-03-06T05:20:41.630Z,100.00
2023-03-06T05:23:10.291Z,100.00
2023-03-06T05:25:40.646Z,100.00
2023-03-06T05:28:09.934Z,100.00
2023-03-06T05:30:38.513Z,100.00
2023-03-06T05:33:06.972Z,100.00
2023-03-06T05:35:35.590Z,100.00
2023-03-06T05:38:05.597Z,100.00
2023-03-06T05:40:34.126Z,100.00
2023-03-06T05:43:02.767Z,100.00
2023-03-06T05:45:31.327Z,100.00
2023-03-06T05:47:59.929Z,100.00
2023-03-06T05:50:28.742Z,100.00
2023-03-06T05:52:57.405Z,100.00
2023-03-06T05:55:27.500Z,100.00
2023-03-06T05:57:56.208Z,100.00
2023-03-06T06:00:25.776Z,100.00
2023-03-06T06:02:54.432Z,100.00
2023-03-06T06:05:22.959Z,100.00
2023-03-06T06:07:51.429Z,100.00
2023-03-06T06:10:20.192Z,100.00
2023-03-06T06:12:50.182Z,100.00
2023-03-06T06:15:19.146Z,100.00
2023-03-06T06:17:47.735Z,100.00
2023-03-06T06:20:17.237Z,100.00
2023-03-06T06:22:45.659Z,100.00
2023-03-06T06:25:14.760Z,100.00
2023-03-06T06:27:43.681Z,100.00
2023-03-06T06:30:15.166Z,100.00
2023-03-06T06:32:43.703Z,100.00
2023-03-06T06:35:23.997Z,100.00
2023-03-06T06:37:52.764Z,100.00
2023-03-06T06:40:24.359Z,100.00
2023-03-06T06:42:54.443Z,100.00
2023-03-06T06:45:24.350Z,100.00
2023-03-06T06:47:52.888Z,100.00
2023-03-06T06:50:21.571Z,100.00
2023-03-06T06:52:50.090Z,100.00
2023-03-06T06:55:18.798Z,100.00
2023-03-06T06:57:47.456Z,100.00
2023-03-06T07:00:18.027Z,100.00
2023-03-06T07:02:49.226Z,100.00
2023-03-06T07:05:20.997Z,100.00
2023-03-06T07:07:51.333Z,100.00
2023-03-06T07:10:21.170Z,100.00
2023-03-06T07:12:50.078Z,100.00
2023-03-06T07:15:19.936Z,100.00
2023-03-06T07:17:50.408Z,100.00
2023-03-06T07:20:20.390Z,100.00
2023-03-06T07:22:51.878Z,100.00
2023-03-06T07:25:22.379Z,100.00
2023-03-06T07:27:55.174Z,100.00
2023-03-06T07:30:24.914Z,100.00
2023-03-06T07:32:59.781Z,100.00
2023-03-06T07:35:28.846Z,100.00
2023-03-06T07:38:00.360Z,100.00
2023-03-06T07:40:29.283Z,100.00
2023-03-06T07:43:16.892Z,100.00
2023-03-06T07:45:58.202Z,100.00
2023-03-06T07:48:29.155Z,100.00
2023-03-06T07:51:00.271Z,100.00
2023-03-06T07:53:30.835Z,100.00
2023-03-06T07:55:59.996Z,100.00
2023-03-06T07:58:28.995Z,100.00
2023-03-06T08:00:57.687Z,100.00
2023-03-06T08:03:27.726Z,100.00
2023-03-06T08:06:05.195Z,100.00
2023-03-06T08:08:35.478Z,100.00
2023-03-06T08:11:04.784Z,100.00
2023-03-06T08:13:33.533Z,100.00
2023-03-06T08:16:02.497Z,100.00
2023-03-06T08:18:33.126Z,100.00
2023-03-06T08:21:07.165Z,100.00
2023-03-06T08:23:36.842Z,100.00
2023-03-06T08:26:09.117Z,100.00
2023-03-06T08:28:37.852Z,100.00
2023-03-06T08:31:13.301Z,100.00
2023-03-06T08:33:43.726Z,100.00
2023-03-06T08:36:12.261Z,100.00
2023-03-06T08:38:40.732Z,100.00
2023-03-06T08:41:09.586Z,100.00
2023-03-06T08:43:38.141Z,100.00
2023-03-06T08:46:07.227Z,100.00
2023-03-06T08:48:35.786Z,100.00
2023-03-06T08:51:06.716Z,100.00
2023-03-06T08:53:43.186Z,100.00
2023-03-06T08:56:19.008Z,100.00
2023-03-06T08:58:47.992Z,100.00
2023-03-06T09:01:18.685Z,100.00
2023-03-06T09:03:47.559Z,100.00
2023-03-06T09:06:18.191Z,100.00
2023-03-06T09:08:47.676Z,100.00
2023-03-06T09:11:17.075Z,100.00
2023-03-06T09:13:45.782Z,100.00
2023-03-06T09:16:14.626Z,100.00
2023-03-06T09:18:43.692Z,100.00
2023-03-06T09:21:12.861Z,100.00
2023-03-06T09:23:42.783Z,100.00
2023-03-06T09:26:14.067Z,100.00
2023-03-06T09:28:43.241Z,100.00
2023-03-06T09:31:15.068Z,100.00
2023-03-06T09:33:44.040Z,100.00
2023-03-06T09:36:17.510Z,100.00
2023-03-06T09:38:49.902Z,100.00
2023-03-06T09:41:38.631Z,100.00
2023-03-06T09:44:14.645Z,100.00
2023-03-06T09:47:09.822Z,100.00
2023-03-06T09:50:09.866Z,100.00
2023-03-06T09:52:53.342Z,100.00
2023-03-06T09:55:27.711Z,100.00
2023-03-06T09:58:02.398Z,100.00
2023-03-06T10:00:38.167Z,100.00
2023-03-06T10:03:20.798Z,100.00
2023-03-06T10:05:56.238Z,100.00
2023-03-06T10:08:35.714Z,100.00
2023-03-06T10:11:11.668Z,100.00
2023-03-06T10:13:44.630Z,100.00
2023-03-06T10:16:27.014Z,100.00
2023-03-06T10:19:00.097Z,100.00
2023-03-06T10:21:44.508Z,100.00
2023-03-06T10:24:35.576Z,100.00
2023-03-06T10:27:23.488Z,100.00
2023-03-06T10:30:05.389Z,100.00
2023-03-06T10:32:48.998Z,100.00
2023-03-06T10:35:25.625Z,96.52
2023-03-06T10:38:03.224Z,97.41
2023-03-06T10:40:47.624Z,89.60
2023-03-06T10:43:17.673Z,84.21
2023-03-06T10:45:52.843Z,88.99
2023-03-06T10:48:25.893Z,84.44
2023-03-06T10:51:18.150Z,81.74
2023-03-06T10:53:53.995Z,85.72
2023-03-06T10:56:32.908Z,83.76
2023-03-06T10:59:13.987Z,83.48
2023-03-06T11:01:44.369Z,87.80
2023-03-06T11:04:24.167Z,90.95
2023-03-06T11:07:15.320Z,85.82
2023-03-06T11:09:47.872Z,88.37
2023-03-06T11:12:27.982Z,84.09
2023-03-06T11:15:21.197Z,82.91
2023-03-06T11:17:59.417Z,79.22
2023-03-06T11:20:50.078Z,84.14
2023-03-06T11:23:26.306Z,69.91
2023-03-06T11:26:03.389Z,76.35
2023-03-06T11:28:38.155Z,79.02
2023-03-06T11:31:16.126Z,79.05
2023-03-06T11:33:53.546Z,82.46
2023-03-06T11:36:30.563Z,80.74
2023-03-06T11:38:59.158Z,73.28
2023-03-06T11:41:40.164Z,75.07
2023-03-06T11:44:23.143Z,72.87
2023-03-06T11:47:05.177Z,70.36
2023-03-06T11:49:41.637Z,73.14
2023-03-06T11:52:24.198Z,72.65
2023-03-06T11:54:57.300Z,71.28
2023-03-06T11:57:36.291Z,72.44
2023-03-06T12:00:29.656Z,69.95
2023-03-06T12:03:49.920Z,78.67
2023-03-06T12:06:35.872Z,76.52
2023-03-06T12:09:29.685Z,78.69
2023-03-06T12:12:20.513Z,78.37
2023-03-06T12:15:14.431Z,87.74
2023-03-06T12:18:16.419Z,92.39
2023-03-06T12:21:01.142Z,96.76
2023-03-06T12:23:52.597Z,96.92
2023-03-06T12:26:45.593Z,92.99
2023-03-06T12:29:34.107Z,91.55
2023-03-06T12:32:17.740Z,93.32
2023-03-06T12:35:18.377Z,89.75
2023-03-06T12:38:05.008Z,87.95
2023-03-06T12:40:52.964Z,87.76
2023-03-06T12:44:03.459Z,85.70
2023-03-06T12:46:37.670Z,89.63
2023-03-06T12:49:23.062Z,88.80
2023-03-06T12:52:02.295Z,89.32
2023-03-06T12:54:36.133Z,90.67
2023-03-06T12:57:08.392Z,91.12
2023-03-06T12:59:44.490Z,87.36
2023-03-06T13:03:01.878Z,82.93
2023-03-06T13:06:05.653Z,84.51
2023-03-06T13:09:13.289Z,87.60
2023-03-06T13:12:10.955Z,86.18
2023-03-06T13:14:58.129Z,86.81
2023-03-06T13:17:35.156Z,93.82
2023-03-06T13:20:35.586Z,92.83
2023-03-06T13:23:52.398Z,97.24
2023-03-06T13:27:06.744Z,99.27
2023-03-06T13:30:24.380Z,100.00
2023-03-06T13:32:54.140Z,100.00
2023-03-06T13:35:55.862Z,100.00
2023-03-06T13:38:59.720Z,100.00
2023-03-06T13:41:54.065Z,100.00
2023-03-06T13:44:53.020Z,100.00
2023-03-06T13:50:45.287Z,100.00
2023-03-06T13:54:02.220Z,100.00
2023-03-06T13:57:27.828Z,100.00
2023-03-06T14:00:29.202Z,100.00
2023-03-06T14:03:40.346Z,100.00
2023-03-06T14:07:06.463Z,100.00
2023-03-06T14:09:42.456Z,100.00
2023-03-06T14:12:26.194Z,100.00
2023-03-06T14:14:58.696Z,100.00
2023-03-06T14:17:32.947Z,100.00
2023-03-06T14:20:13.873Z,100.00
2023-03-06T14:22:42.755Z,100.00
2023-03-06T14:25:20.437Z,100.00
2023-03-06T14:27:54.955Z,100.00
2023-03-06T14:30:26.718Z,100.00
2023-03-06T14:32:57.390Z,100.00
2023-03-06T14:35:32.159Z,100.00
2023-03-06T14:38:06.185Z,100.00
2023-03-06T14:40:37.922Z,100.00
2023-03-06T14:43:22.994Z,100.00
2023-03-06T14:45:57.936Z,100.00
2023-03-06T14:48:41.004Z,100.00
2023-03-06T14:51:18.253Z,100.00
2023-03-06T14:53:50.258Z,100.00
2023-03-06T14:56:22.622Z,100.00
2023-03-06T14:58:58.601Z,100.00
2023-03-06T15:01:34.383Z,100.00
2023-03-06T15:04:15.923Z,100.00
2023-03-06T15:06:46.598Z,100.00
2023-03-06T15:09:21.494Z,100.00
2023-03-06T15:11:57.245Z,100.00
2023-03-06T15:14:34.419Z,100.00
2023-03-06T15:17:29.278Z,100.00
2023-03-06T15:20:01.785Z,100.00
2023-03-06T15:22:37.725Z,100.00
2023-03-06T15:25:27.667Z,100.00
2023-03-06T15:27:59.134Z,100.00
2023-03-06T15:30:31.399Z,100.00
2023-03-06T15:33:24.646Z,100.00
2023-03-06T15:35:57.490Z,100.00
2023-03-06T15:38:35.127Z,100.00
2023-03-06T15:41:21.234Z,100.00
2023-03-06T15:43:49.797Z,100.00
2023-03-06T15:46:18.409Z,100.00
2023-03-06T15:48:55.442Z,100.00
2023-03-06T15:51:25.881Z,100.00
2023-03-06T15:53:59.780Z,100.00
2023-03-06T15:56:40.221Z,100.00
2023-03-06T15:59:15.332Z,100.00
2023-03-06T16:01:44.398Z,100.00
2023-03-06T16:04:13.974Z,100.00
2023-03-06T16:06:45.411Z,100.00
2023-03-06T16:09:15.260Z,100.00
2023-03-06T16:11:45.723Z,100.00
2023-03-06T16:14:21.389Z,100.00
2023-03-06T16:16:50.445Z,100.00
2023-03-06T16:19:29.132Z,100.00
2023-03-06T16:21:59.188Z,100.00
2023-03-06T16:24:27.660Z,100.00
2023-03-06T16:27:00.569Z,100.00
2023-03-06T16:29:30.679Z,100.00
2023-03-06T16:32:01.733Z,100.00
2023-03-06T16:34:30.373Z,100.00
2023-03-06T16:37:00.352Z,100.00
2023-03-06T16:39:28.909Z,100.00
2023-03-06T16:41:57.375Z,100.00
2023-03-06T16:44:25.974Z,100.00
2023-03-06T16:46:54.583Z,100.00
2023-03-06T16:49:26.488Z,100.00
2023-03-06T16:51:56.285Z,100.00
2023-03-06T16:54:26.317Z,100.00
2023-03-06T16:56:54.879Z,100.00
2023-03-06T16:59:24.849Z,100.00
2023-03-06T17:01:53.415Z,100.00
2023-03-06T17:04:22.006Z,100.00
2023-03-06T17:06:52.870Z,100.00
2023-03-06T17:09:21.515Z,100.00
2023-03-06T17:11:51.504Z,100.00
2023-03-06T17:14:20.475Z,100.00
2023-03-06T17:16:49.027Z,100.00
2023-03-06T17:19:17.702Z,100.00
2023-03-06T17:21:46.378Z,100.00
2023-03-06T17:24:14.970Z,100.00
2023-03-06T17:26:44.363Z,100.00
2023-03-06T17:29:14.304Z,100.00
2023-03-06T17:31:42.993Z,100.00
2023-03-06T17:34:11.551Z,100.00
2023-03-06T17:36:40.098Z,100.00
2023-03-06T17:39:08.652Z,100.00
2023-03-06T17:41:37.238Z,100.00
2023-03-06T17:44:06.588Z,100.00
2023-03-06T17:46:37.114Z,100.00
2023-03-06T17:49:05.891Z,100.00
2023-03-06T17:51:34.491Z,100.00
2023-03-06T17:54:03.080Z,100.00
2023-03-06T17:56:33.935Z,100.00
2023-03-06T17:59:03.049Z,100.00
2023-03-06T18:01:34.494Z,100.00
2023-03-06T18:04:04.986Z,100.00
2023-03-06T18:06:35.138Z,100.00
2023-03-06T18:09:05.012Z,100.00
2023-03-06T18:11:34.206Z,100.00
2023-03-06T18:14:05.567Z,100.00
2023-03-06T18:16:34.913Z,100.00
2023-03-06T18:19:05.018Z,100.00
2023-03-06T18:21:33.784Z,100.00
2023-03-06T18:24:02.357Z,100.00
2023-03-06T18:26:32.185Z,100.00
2023-03-06T18:29:04.772Z,100.00
2023-03-06T18:31:36.152Z,100.00
2023-03-06T18:34:10.121Z,100.00
2023-03-06T18:36:39.714Z,100.00
2023-03-06T18:39:11.535Z,100.00
2023-03-06T18:41:40.283Z,100.00
2023-03-06T18:44:09.070Z,100.00
2023-03-06T18:46:39.846Z,100.00
2023-03-06T18:49:11.395Z,100.00
2023-03-06T18:51:40.703Z,100.00
2023-03-06T18:54:09.938Z,100.00
2023-03-06T18:56:39.844Z,100.00
2023-03-06T18:59:16.969Z,100.00
2023-03-06T19:01:48.506Z,100.00
2023-03-06T19:04:18.571Z,100.00
2023-03-06T19:06:47.309Z,100.00
2023-03-06T19:09:15.961Z,100.00
2023-03-06T19:11:46.777Z,100.00
2023-03-06T19:14:16.350Z,100.00
2023-03-06T19:16:45.331Z,100.00
2023-03-06T19:19:13.930Z,100.00
2023-03-06T19:21:43.920Z,100.00
2023-03-06T19:24:14.084Z,100.00
2023-03-06T19:26:42.990Z,100.00
2023-03-06T19:29:11.611Z,100.00
2023-03-06T19:31:40.645Z,100.00
2023-03-06T19:34:09.534Z,100.00
2023-03-06T19:36:40.701Z,100.00
2023-03-06T19:39:12.927Z,100.00
2023-03-06T19:41:41.870Z,100.00
2023-03-06T19:44:12.238Z,100.00
2023-03-06T19:46:40.815Z,100.00
2023-03-06T19:49:12.176Z,100.00
2023-03-06T19:51:40.985Z,100.00
2023-03-06T19:54:12.285Z,100.00
2023-03-06T19:56:41.732Z,100.00
2023-03-06T19:59:10.897Z,100.00
2023-03-06T20:01:39.766Z,100.00
2023-03-06T20:04:08.567Z,100.00
2023-03-06T20:06:38.755Z,100.00
2023-03-06T20:09:12.188Z,100.00
2023-03-06T20:11:40.911Z,100.00
2023-03-06T20:14:10.031Z,100.00
2023-03-06T20:16:39.306Z,100.00
2023-03-06T20:19:12.933Z,100.00
2023-03-06T20:21:41.616Z,100.00
2023-03-06T20:24:19.179Z,100.00
2023-03-06T20:26:51.144Z,100.00
2023-03-06T20:29:20.205Z,100.00
2023-03-06T20:31:48.896Z,100.00
2023-03-06T20:34:17.534Z,100.00
2023-03-06T20:36:46.110Z,100.00
2023-03-06T20:39:19.111Z,100.00
2023-03-06T20:41:47.745Z,100.00
2023-03-06T20:44:19.741Z,100.00
2023-03-06T20:46:48.691Z,100.00
2023-03-06T20:49:17.878Z,100.00
2023-03-06T20:51:47.094Z,100.00
2023-03-06T20:54:18.221Z,100.00
2023-03-06T20:56:50.191Z,100.00
2023-03-06T20:59:19.424Z,100.00
2023-03-06T21:01:48.326Z,100.00
2023-03-06T21:04:17.386Z,100.00
2023-03-06T21:06:47.932Z,100.00
2023-03-06T21:09:18.601Z,100.00
2023-03-06T21:11:47.719Z,100.00
2023-03-06T21:14:16.822Z,100.00
2023-03-06T21:16:45.658Z,100.00
2023-03-06T21:19:14.295Z,100.00
2023-03-06T21:21:43.093Z,100.00
2023-03-06T21:24:11.813Z,100.00
2023-03-06T21:26:41.912Z,100.00
2023-03-06T21:29:10.378Z,100.00
2023-03-06T21:31:40.307Z,100.00
2023-03-06T21:34:10.553Z,100.00
2023-03-06T21:36:39.220Z,100.00
2023-03-06T21:39:08.071Z,100.00
2023-03-06T21:41:38.079Z,100.00
2023-03-06T21:44:08.679Z,100.00
2023-03-06T21:46:37.526Z,100.00
2023-03-06T21:49:06.770Z,100.00
2023-03-06T21:51:35.817Z,100.00
2023-03-06T21:54:04.870Z,100.00
2023-03-06T21:56:33.638Z,100.00
2023-03-06T21:59:02.644Z,100.00
2023-03-06T22:01:32.891Z,100.00
2023-03-06T22:04:01.657Z,100.00
2023-03-06T22:06:32.292Z,100.00
2023-03-06T22:09:02.362Z,100.00
2023-03-06T22:11:34.229Z,100.00
2023-03-06T22:14:03.172Z,100.00
2023-03-06T22:16:33.741Z,100.00
2023-03-06T22:19:02.421Z,100.00
2023-03-06T22:21:31.124Z,100.00
2023-03-06T22:24:00.665Z,100.00
2023-03-06T22:26:32.440Z,100.00
2023-03-06T22:29:01.023Z,100.00
2023-03-06T22:31:30.488Z,100.00
2023-03-06T22:34:02.337Z,100.00
2023-03-06T22:36:32.536Z,100.00
2023-03-06T22:39:04.180Z,100.00
2023-03-06T22:41:33.235Z,100.00
2023-03-06T22:44:03.418Z,100.00
2023-03-06T22:46:33.528Z,100.00
2023-03-06T22:49:03.772Z,100.00
2023-03-06T22:51:32.724Z,100.00
2023-03-06T22:54:01.380Z,100.00
2023-03-06T22:56:29.923Z,100.00
2023-03-06T22:58:58.997Z,100.00
2023-03-06T23:01:31.245Z,100.00
2023-03-06T23:04:02.279Z,100.00
2023-03-06T23:06:34.840Z,100.00
2023-03-06T23:09:08.026Z,100.00
2023-03-06T23:11:55.247Z,100.00
2023-03-06T23:14:42.651Z,100.00
2023-03-06T23:17:29.940Z,100.00
2023-03-06T23:20:17.316Z,100.00
2023-03-06T23:23:05.894Z,100.00
2023-03-06T23:25:44.074Z,100.00
2023-03-06T23:28:13.388Z,100.00
2023-03-06T23:30:43.607Z,100.00
2023-03-06T23:33:12.636Z,100.00
2023-03-06T23:35:41.457Z,100.00
2023-03-06T23:38:11.371Z,100.00
2023-03-06T23:40:40.791Z,100.00
2023-03-06T23:43:09.528Z,100.00
2023-03-06T23:45:38.133Z,100.00
2023-03-06T23:48:08.019Z,100.00
2023-03-06T23:50:36.626Z,100.00
2023-03-06T23:53:05.086Z,100.00
2023-03-06T23:55:35.879Z,100.00
2023-03-06T23:58:04.424Z,100.00
